createdAt,value
2019-06-07T00:00:45.604Z,0.00
2019-06-07T00:01:45.592Z,0.00
2019-06-07T00:02:45.580Z,0.00
2019-06-07T00:03:45.630Z,0.00
2019-06-07T00:04:45.557Z,0.00
2019-06-07T00:05:45.547Z,0.00
2019-06-07T00:06:45.587Z,0.00
2019-06-07T00:07:45.527Z,0.00
2019-06-07T00:08:45.512Z,0.00
2019-06-07T00:09:45.567Z,0.00
2019-06-07T00:10:45.488Z,0.00
2019-06-07T00:11:45.477Z,0.00
2019-06-07T00:12:45.476Z,0.00
2019-06-07T00:13:45.456Z,0.00
2019-06-07T00:14:45.448Z,0.00
2019-06-07T00:15:45.492Z,0.00
2019-06-07T00:16:45.425Z,0.00
2019-06-07T00:17:45.415Z,0.00
2019-06-07T00:18:45.397Z,0.00
2019-06-07T00:19:45.435Z,0.00
2019-06-07T00:20:45.374Z,0.00
2019-06-07T00:22:46.352Z,0.00
2019-06-07T00:23:45.341Z,0.00
2019-06-07T00:24:45.329Z,0.00
2019-06-07T00:25:45.319Z,0.00
2019-06-07T00:26:57.902Z,0.00
2019-06-07T00:27:46.358Z,0.00
2019-06-07T00:28:45.320Z,0.00
2019-06-07T00:29:45.273Z,0.00
2019-06-07T00:30:51.744Z,0.00
2019-06-07T00:31:46.252Z,0.00
2019-06-07T00:32:45.241Z,0.00
2019-06-07T00:33:45.460Z,0.00
2019-06-07T00:34:45.221Z,0.00
2019-06-07T00:35:45.209Z,0.00
2019-06-07T00:36:45.195Z,0.00
2019-06-07T00:37:45.181Z,0.00
2019-06-07T00:38:45.172Z,0.00
2019-06-07T00:39:45.222Z,0.00
2019-06-07T00:40:45.152Z,0.00
2019-06-07T00:41:45.140Z,0.00
2019-06-07T00:42:45.128Z,0.00
2019-06-07T00:43:45.119Z,0.00
2019-06-07T00:44:45.103Z,0.00
2019-06-07T00:45:45.155Z,0.00
2019-06-07T00:46:45.092Z,0.00
2019-06-07T00:47:45.071Z,0.00
2019-06-07T00:48:45.058Z,0.00
2019-06-07T00:49:45.055Z,0.00
2019-06-07T00:50:45.045Z,0.00
2019-06-07T00:51:50.509Z,0.00
2019-06-07T00:53:46.006Z,0.00
2019-06-07T00:54:44.993Z,0.00
2019-06-07T00:55:44.982Z,0.00
2019-06-07T00:56:44.971Z,0.00
2019-06-07T00:57:45.039Z,0.00
2019-06-07T00:58:44.957Z,0.00
2019-06-07T00:59:44.934Z,0.00
2019-06-07T01:00:44.930Z,0.00
2019-06-07T01:01:44.913Z,0.00
2019-06-07T01:02:44.903Z,0.00
2019-06-07T01:03:45.100Z,0.00
2019-06-07T01:04:44.881Z,0.00
2019-06-07T01:05:44.869Z,0.00
2019-06-07T01:06:44.860Z,0.00
2019-06-07T01:07:44.846Z,0.00
2019-06-07T01:08:44.837Z,0.00
2019-06-07T01:09:44.886Z,0.00
2019-06-07T01:10:53.490Z,0.00
2019-06-07T01:11:45.799Z,0.00
2019-06-07T01:12:44.804Z,0.00
2019-06-07T01:13:44.780Z,0.00
2019-06-07T01:14:44.767Z,0.00
2019-06-07T01:15:44.821Z,0.00
2019-06-07T01:16:57.356Z,0.00
2019-06-07T01:18:25.915Z,0.00
2019-06-07T01:18:50.699Z,0.00
2019-06-07T01:19:45.708Z,0.00
2019-06-07T01:20:44.750Z,0.00
2019-06-07T01:21:44.757Z,0.00
2019-06-07T01:22:44.684Z,0.00
2019-06-07T01:24:08.768Z,0.00
2019-06-07T01:24:45.654Z,0.00
2019-06-07T01:25:44.645Z,0.00
2019-06-07T01:26:45.652Z,0.00
2019-06-07T01:27:44.678Z,0.00
2019-06-07T01:28:44.616Z,0.00
2019-06-07T01:29:44.602Z,0.00
2019-06-07T01:30:44.589Z,0.00
2019-06-07T01:31:44.580Z,0.00
2019-06-07T01:32:44.565Z,0.00
2019-06-07T01:33:50.648Z,0.00
2019-06-07T01:34:45.541Z,0.00
2019-06-07T01:35:44.565Z,0.00
2019-06-07T01:36:44.523Z,0.00
2019-06-07T01:37:44.509Z,0.00
2019-06-07T01:38:44.502Z,0.00
2019-06-07T01:39:44.692Z,0.00
2019-06-07T01:40:44.480Z,0.00
2019-06-07T01:41:44.466Z,0.00
2019-06-07T01:42:44.453Z,0.00
2019-06-07T01:43:44.442Z,0.00
2019-06-07T01:44:44.443Z,0.00
2019-06-07T01:45:44.629Z,0.00
2019-06-07T01:46:44.414Z,0.00
2019-06-07T01:47:44.397Z,0.00
2019-06-07T01:48:49.332Z,0.00
2019-06-07T01:49:45.376Z,0.00
2019-06-07T01:50:44.363Z,0.00
2019-06-07T01:51:44.412Z,0.00
2019-06-07T01:52:44.343Z,0.00
2019-06-07T01:53:44.331Z,0.00
2019-06-07T01:54:57.898Z,0.00
2019-06-07T01:55:45.308Z,0.00
2019-06-07T01:56:44.296Z,0.00
2019-06-07T01:57:48.416Z,0.00
2019-06-07T01:58:44.275Z,0.00
2019-06-07T01:59:44.267Z,0.00
2019-06-07T02:00:44.432Z,0.00
2019-06-07T02:01:44.243Z,0.00
2019-06-07T02:02:44.231Z,0.00
2019-06-07T02:03:44.282Z,0.00
2019-06-07T02:04:44.212Z,0.00
2019-06-07T02:05:44.200Z,0.00
2019-06-07T02:06:44.200Z,0.00
2019-06-07T02:07:44.174Z,0.00
2019-06-07T02:08:44.163Z,0.00
2019-06-07T02:09:44.215Z,0.00
2019-06-07T02:10:44.140Z,0.00
2019-06-07T02:11:44.131Z,0.00
2019-06-07T02:12:44.129Z,0.00
2019-06-07T02:13:44.107Z,0.00
2019-06-07T02:14:44.095Z,0.00
2019-06-07T02:15:44.138Z,0.00
2019-06-07T02:16:44.156Z,0.00
2019-06-07T02:17:44.070Z,0.00
2019-06-07T02:19:01.352Z,0.00
2019-06-07T02:19:45.040Z,4.00
2019-06-07T02:20:44.032Z,4.00
2019-06-07T02:21:44.078Z,4.00
2019-06-07T02:22:44.005Z,4.00
2019-06-07T02:23:43.996Z,4.00
2019-06-07T02:24:43.983Z,4.00
2019-06-07T02:25:50.195Z,4.00
2019-06-07T02:26:45.022Z,4.00
2019-06-07T02:27:44.126Z,8.00
2019-06-07T02:28:45.576Z,4.00
2019-06-07T02:29:43.928Z,8.00
2019-06-07T02:30:58.317Z,8.00
2019-06-07T02:31:44.903Z,8.00
2019-06-07T02:32:43.957Z,12.00
2019-06-07T02:33:43.889Z,12.00
2019-06-07T02:34:43.871Z,16.00
2019-06-07T02:35:43.885Z,16.00
2019-06-07T02:36:43.849Z,20.00
2019-06-07T02:37:43.843Z,20.00
2019-06-07T02:38:43.887Z,24.00
2019-06-07T02:39:43.816Z,28.00
2019-06-07T02:40:43.803Z,28.00
2019-06-07T02:41:43.792Z,36.00
2019-06-07T02:42:43.793Z,36.00
2019-06-07T02:43:43.771Z,40.00
2019-06-07T02:44:43.824Z,48.00
2019-06-07T02:45:44.016Z,52.00
2019-06-07T02:46:48.844Z,56.00
2019-06-07T02:47:44.726Z,64.00
2019-06-07T02:48:43.729Z,72.00
2019-06-07T02:49:44.650Z,76.00
2019-06-07T02:50:43.913Z,84.00
2019-06-07T02:51:43.693Z,92.00
2019-06-07T02:52:43.669Z,96.00
2019-06-07T02:53:43.660Z,104.00
2019-06-07T02:54:43.648Z,120.00
2019-06-07T02:56:33.956Z,128.00
2019-06-07T02:56:57.189Z,140.00
2019-06-07T02:57:44.616Z,156.00
2019-06-07T02:58:43.608Z,172.00
2019-06-07T03:00:05.039Z,188.00
2019-06-07T03:01:08.315Z,208.00
2019-06-07T03:01:44.568Z,228.00
2019-06-07T03:02:43.769Z,240.00
2019-06-07T03:03:43.550Z,256.00
2019-06-07T03:04:44.907Z,272.00
2019-06-07T03:05:43.523Z,288.00
2019-06-07T03:06:44.267Z,296.00
2019-06-07T03:07:45.200Z,312.00
2019-06-07T03:08:43.548Z,324.00
2019-06-07T03:09:43.485Z,344.00
2019-06-07T03:10:43.466Z,356.00
2019-06-07T03:11:43.459Z,380.00
2019-06-07T03:12:43.446Z,412.00
2019-06-07T03:13:43.434Z,448.00
2019-06-07T03:14:43.488Z,488.00
2019-06-07T03:15:50.049Z,520.00
2019-06-07T03:16:44.397Z,544.00
2019-06-07T03:17:43.435Z,568.00
2019-06-07T03:18:43.417Z,596.00
2019-06-07T03:19:43.366Z,624.00
2019-06-07T03:20:43.563Z,648.00
2019-06-07T03:21:43.342Z,672.00
2019-06-07T03:22:43.340Z,696.00
2019-06-07T03:23:43.326Z,720.00
2019-06-07T03:24:44.161Z,752.00
2019-06-07T03:25:43.298Z,780.00
2019-06-07T03:27:31.699Z,808.00
2019-06-07T03:27:49.889Z,840.00
2019-06-07T03:28:44.264Z,880.00
2019-06-07T03:29:43.256Z,904.00
2019-06-07T03:31:00.937Z,920.00
2019-06-07T03:31:47.735Z,936.00
2019-06-07T03:32:47.949Z,952.00
2019-06-07T03:33:45.624Z,964.00
2019-06-07T03:34:43.891Z,980.00
2019-06-07T03:35:43.185Z,996.00
2019-06-07T03:36:43.179Z,1036.00
2019-06-07T03:37:43.294Z,1084.00
2019-06-07T03:38:43.151Z,1140.00
2019-06-07T03:39:43.140Z,1184.00
2019-06-07T03:40:43.129Z,1240.00
2019-06-07T03:42:04.740Z,1292.00
2019-06-07T03:42:44.313Z,1332.00
2019-06-07T03:43:43.097Z,1376.00
2019-06-07T03:44:43.086Z,1408.00
2019-06-07T03:45:43.075Z,1428.00
2019-06-07T03:46:43.062Z,1464.00
2019-06-07T03:47:43.424Z,1516.00
2019-06-07T03:48:43.244Z,1568.00
2019-06-07T03:49:43.030Z,1620.00
2019-06-07T03:50:43.020Z,1680.00
2019-06-07T03:51:43.018Z,1716.00
2019-06-07T03:52:43.000Z,1704.00
2019-06-07T03:53:42.983Z,1672.00
2019-06-07T03:54:43.054Z,1672.00
2019-06-07T03:55:42.961Z,1736.00
2019-06-07T03:56:42.952Z,1828.00
2019-06-07T03:58:49.646Z,1984.00
2019-06-07T03:59:43.976Z,2016.00
2019-06-07T04:00:43.571Z,2032.00
2019-06-07T04:01:42.895Z,2028.00
2019-06-07T04:02:42.887Z,2020.00
2019-06-07T04:03:50.990Z,2000.00
2019-06-07T04:04:43.861Z,1984.00
2019-06-07T04:05:43.802Z,2008.00
2019-06-07T04:06:42.999Z,2048.00
2019-06-07T04:07:44.468Z,2100.00
2019-06-07T04:08:42.847Z,2144.00
2019-06-07T04:09:43.321Z,2212.00
2019-06-07T04:10:58.508Z,2328.00
2019-06-07T04:11:43.841Z,2496.00
2019-06-07T04:12:43.871Z,2688.00
2019-06-07T04:13:43.294Z,2856.00
2019-06-07T04:14:43.108Z,2972.00
2019-06-07T04:15:42.740Z,3064.00
2019-06-07T04:16:44.826Z,3104.00
2019-06-07T04:18:00.860Z,3104.00
2019-06-07T04:18:43.699Z,3140.00
2019-06-07T04:19:43.661Z,3216.00
2019-06-07T04:20:42.682Z,3320.00
2019-06-07T04:21:43.157Z,3448.00
2019-06-07T04:22:42.956Z,3592.00
2019-06-07T04:23:45.681Z,3764.00
2019-06-07T04:24:42.665Z,4028.00
2019-06-07T04:25:42.871Z,4420.00
2019-06-07T04:26:43.753Z,4648.00
2019-06-07T04:27:42.606Z,4856.00
2019-06-07T04:29:30.219Z,5036.00
2019-06-07T04:30:05.869Z,5300.00
2019-06-07T04:30:43.598Z,5528.00
2019-06-07T04:31:43.126Z,5652.00
2019-06-07T04:32:44.915Z,5664.00
2019-06-07T04:33:43.750Z,5708.00
2019-06-07T04:34:43.308Z,5708.00
2019-06-07T04:35:43.340Z,5744.00
2019-06-07T04:36:56.701Z,5828.00
2019-06-07T04:37:43.485Z,6004.00
2019-06-07T04:38:42.827Z,6040.00
2019-06-07T04:39:44.939Z,6040.00
2019-06-07T04:40:42.933Z,5888.00
2019-06-07T04:41:42.549Z,5860.00
2019-06-07T04:42:45.233Z,5896.00
2019-06-07T04:43:42.892Z,5948.00
2019-06-07T04:44:42.894Z,6072.00
2019-06-07T04:45:50.896Z,6248.00
2019-06-07T04:46:43.592Z,6356.00
2019-06-07T04:47:42.696Z,6400.00
2019-06-07T04:48:43.525Z,6624.00
2019-06-07T04:49:44.231Z,6948.00
2019-06-07T04:50:44.101Z,7184.00
2019-06-07T04:51:42.399Z,6992.00
2019-06-07T04:52:45.044Z,7056.00
2019-06-07T04:53:43.278Z,6956.00
2019-06-07T04:54:45.981Z,7084.00
2019-06-07T04:55:42.284Z,7280.00
2019-06-07T04:56:44.704Z,7516.00
2019-06-07T04:57:43.212Z,7540.00
2019-06-07T04:58:43.136Z,7592.00
2019-06-07T05:00:11.026Z,7484.00
2019-06-07T05:00:52.519Z,7380.00
2019-06-07T05:01:43.214Z,7416.00
2019-06-07T05:02:43.481Z,7584.00
2019-06-07T05:03:44.353Z,7700.00
2019-06-07T05:04:42.481Z,7668.00
2019-06-07T05:05:43.881Z,7700.00
2019-06-07T05:06:42.492Z,7900.00
2019-06-07T05:07:46.135Z,7984.00
2019-06-07T05:08:43.789Z,8012.00
2019-06-07T05:09:43.329Z,8052.00
2019-06-07T05:10:43.999Z,8064.00
2019-06-07T05:11:44.839Z,8176.00
2019-06-07T05:12:44.139Z,8220.00
2019-06-07T05:13:43.797Z,8272.00
2019-06-07T05:14:44.165Z,8308.00
2019-06-07T05:15:42.520Z,8320.00
2019-06-07T05:16:44.471Z,8396.00
2019-06-07T05:17:43.476Z,8472.00
2019-06-07T05:18:43.309Z,8352.00
2019-06-07T05:19:44.550Z,8172.00
2019-06-07T05:20:44.483Z,7932.00
2019-06-07T05:22:01.507Z,7844.00
2019-06-07T05:22:45.246Z,7900.00
2019-06-07T05:24:05.904Z,8212.00
2019-06-07T05:24:43.916Z,8716.00
2019-06-07T05:25:44.472Z,9504.00
2019-06-07T05:26:42.871Z,10212.00
2019-06-07T05:27:46.608Z,11156.00
2019-06-07T05:28:43.188Z,11776.00
2019-06-07T05:29:44.381Z,11840.00
2019-06-07T05:31:04.486Z,11824.00
2019-06-07T05:31:45.482Z,11800.00
2019-06-07T05:32:45.308Z,11648.00
2019-06-07T05:33:43.555Z,11756.00
2019-06-07T05:34:46.657Z,11756.00
2019-06-07T05:35:43.528Z,11852.00
2019-06-07T05:36:44.819Z,11912.00
2019-06-07T05:37:45.848Z,12384.00
2019-06-07T05:38:44.744Z,12932.00
2019-06-07T05:39:45.465Z,13428.00
2019-06-07T05:40:43.745Z,13876.00
2019-06-07T05:41:44.436Z,14092.00
2019-06-07T05:42:46.030Z,13164.00
2019-06-07T05:43:49.445Z,12364.00
2019-06-07T05:44:45.450Z,11708.00
2019-06-07T05:45:44.997Z,11044.00
2019-06-07T05:46:46.647Z,10768.00
2019-06-07T05:47:50.065Z,10296.00
2019-06-07T05:48:43.926Z,9776.00
2019-06-07T05:49:46.310Z,9444.00
2019-06-07T05:50:55.762Z,9352.00
2019-06-07T05:51:44.834Z,9332.00
2019-06-07T05:52:45.083Z,9344.00
2019-06-07T05:53:45.858Z,9472.00
2019-06-07T05:54:43.156Z,9708.00
2019-06-07T05:55:45.752Z,13132.00
2019-06-07T05:56:45.044Z,20640.00
2019-06-07T05:57:48.579Z,25888.00
2019-06-07T05:58:44.572Z,25952.00
2019-06-07T05:59:44.299Z,26464.00
2019-06-07T06:00:44.600Z,27840.00
2019-06-07T06:01:47.889Z,28832.00
2019-06-07T06:03:00.257Z,29280.00
2019-06-07T06:03:43.966Z,30240.00
2019-06-07T06:04:45.825Z,30496.00
2019-06-07T06:05:49.311Z,30432.00
2019-06-07T06:06:46.490Z,29792.00
2019-06-07T06:07:45.319Z,30304.00
2019-06-07T06:08:44.633Z,30816.00
2019-06-07T06:09:43.294Z,30656.00
2019-06-07T06:10:46.236Z,31456.00
2019-06-07T06:11:54.847Z,31904.00
2019-06-07T06:12:46.150Z,32960.00
2019-06-07T06:14:01.442Z,33664.00
2019-06-07T06:14:44.398Z,32480.00
2019-06-07T06:15:53.706Z,33376.00
2019-06-07T06:16:45.698Z,33408.00
2019-06-07T06:17:46.074Z,33888.00
2019-06-07T06:18:45.757Z,33856.00
2019-06-07T06:19:47.463Z,33504.00
2019-06-07T06:21:04.932Z,33728.00
2019-06-07T06:21:45.242Z,33504.00
2019-06-07T06:22:44.850Z,33728.00
2019-06-07T06:23:43.367Z,34464.00
2019-06-07T06:24:48.797Z,35264.00
2019-06-07T06:25:49.764Z,36512.00
2019-06-07T06:26:50.307Z,37216.00
2019-06-07T06:28:07.881Z,37184.00
2019-06-07T06:28:42.620Z,37792.00
2019-06-07T06:29:42.329Z,39168.00
2019-06-07T06:30:43.786Z,38144.00
2019-06-07T06:32:35.853Z,37792.00
2019-06-07T06:32:50.762Z,38688.00
2019-06-07T06:33:43.409Z,40064.00
2019-06-07T06:34:44.267Z,40416.00
2019-06-07T06:35:42.555Z,39968.00
2019-06-07T06:36:44.624Z,39328.00
2019-06-07T06:37:46.387Z,38624.00
2019-06-07T06:38:43.750Z,40192.00
2019-06-07T06:39:42.060Z,41408.00
2019-06-07T06:40:46.123Z,41696.00
2019-06-07T06:41:50.406Z,39456.00
2019-06-07T06:42:42.355Z,39808.00
2019-06-07T06:43:44.284Z,39680.00
2019-06-07T06:44:44.465Z,41088.00
2019-06-07T06:45:42.792Z,41408.00
2019-06-07T06:46:46.309Z,40992.00
2019-06-07T06:47:43.336Z,41120.00
2019-06-07T06:48:47.376Z,32480.00
2019-06-07T06:49:43.646Z,18656.00
2019-06-07T06:50:43.614Z,14332.00
2019-06-07T06:51:43.018Z,13944.00
2019-06-07T06:52:45.136Z,13892.00
2019-06-07T06:53:42.200Z,13856.00
2019-06-07T06:54:46.112Z,13788.00
2019-06-07T06:55:43.805Z,13856.00
2019-06-07T06:56:43.963Z,14124.00
2019-06-07T06:57:41.804Z,14244.00
2019-06-07T06:59:21.566Z,14584.00
2019-06-07T06:59:43.754Z,14848.00
2019-06-07T07:00:48.384Z,14748.00
2019-06-07T07:01:42.509Z,14596.00
2019-06-07T07:03:27.105Z,14128.00
2019-06-07T07:04:01.228Z,14760.00
2019-06-07T07:04:43.512Z,16088.00
2019-06-07T07:05:40.822Z,16748.00
2019-06-07T07:06:41.501Z,14276.00
2019-06-07T07:07:42.627Z,14864.00
2019-06-07T07:08:40.993Z,17384.00
2019-06-07T07:09:43.852Z,18400.00
2019-06-07T07:10:43.071Z,18368.00
2019-06-07T07:11:55.296Z,18848.00
2019-06-07T07:12:43.070Z,19360.00
2019-06-07T07:13:41.666Z,17216.00
2019-06-07T07:14:43.003Z,15720.00
2019-06-07T07:15:42.815Z,14988.00
2019-06-07T07:16:42.232Z,14800.00
2019-06-07T07:17:53.756Z,15232.00
2019-06-07T07:18:41.884Z,16948.00
2019-06-07T07:19:42.505Z,19616.00
2019-06-07T07:20:43.462Z,18240.00
2019-06-07T07:21:42.049Z,17192.00
2019-06-07T07:22:42.654Z,16640.00
2019-06-07T07:24:04.370Z,16740.00
2019-06-07T07:24:41.911Z,16876.00
2019-06-07T07:25:42.851Z,16416.00
2019-06-07T07:26:42.953Z,16396.00
2019-06-07T07:27:40.575Z,16720.00
2019-06-07T07:28:40.563Z,15964.00
2019-06-07T07:29:40.553Z,19328.00
2019-06-07T07:30:41.908Z,21696.00
2019-06-07T07:31:40.542Z,19136.00
2019-06-07T07:32:40.531Z,18208.00
2019-06-07T07:34:45.520Z,25632.00
2019-06-07T07:36:03.221Z,24672.00
2019-06-07T07:36:41.505Z,24320.00
2019-06-07T07:37:40.461Z,22720.00
2019-06-07T07:38:40.451Z,22112.00
2019-06-07T07:39:40.438Z,20544.00
2019-06-07T07:41:04.548Z,21088.00
2019-06-07T07:41:41.499Z,26144.00
2019-06-07T07:42:40.427Z,25184.00
2019-06-07T07:43:40.439Z,24160.00
2019-06-07T07:44:40.383Z,26752.00
2019-06-07T07:45:40.382Z,22464.00
2019-06-07T07:46:40.370Z,20096.00
2019-06-07T07:47:58.258Z,27328.00
2019-06-07T07:48:41.401Z,31296.00
2019-06-07T07:49:40.372Z,28544.00
2019-06-07T07:50:40.318Z,26016.00
2019-06-07T07:51:40.312Z,28512.00
2019-06-07T07:52:40.296Z,29984.00
2019-06-07T07:53:50.636Z,29632.00
2019-06-07T07:54:41.270Z,29888.00
2019-06-07T07:55:40.305Z,34432.00
2019-06-07T07:56:40.247Z,30752.00
2019-06-07T07:57:40.236Z,29664.00
2019-06-07T07:58:40.227Z,31360.00
2019-06-07T07:59:44.136Z,34176.00
2019-06-07T08:01:07.898Z,37216.00
2019-06-07T08:01:41.217Z,30144.00
2019-06-07T08:02:40.220Z,25600.00
2019-06-07T08:03:40.172Z,28736.00
2019-06-07T08:05:13.854Z,34304.00
2019-06-07T08:05:43.285Z,35360.00
2019-06-07T08:06:40.151Z,30080.00
2019-06-07T08:07:40.130Z,30720.00
2019-06-07T08:08:40.114Z,34368.00
2019-06-07T08:09:40.104Z,30688.00
2019-06-07T08:10:40.093Z,29152.00
2019-06-07T08:11:40.143Z,30048.00
2019-06-07T08:13:00.131Z,31456.00
2019-06-07T08:13:41.061Z,31008.00
2019-06-07T08:14:40.049Z,32928.00
2019-06-07T08:15:40.039Z,33504.00
2019-06-07T08:16:40.029Z,34848.00
2019-06-07T08:17:40.083Z,37920.00
2019-06-07T08:18:40.032Z,31360.00
2019-06-07T08:19:39.996Z,30880.00
2019-06-07T08:20:39.997Z,34272.00
2019-06-07T08:21:39.976Z,38592.00
2019-06-07T08:22:39.972Z,32768.00
2019-06-07T08:23:40.007Z,32480.00
2019-06-07T08:24:39.942Z,31808.00
2019-06-07T08:25:39.930Z,30816.00
2019-06-07T08:26:39.919Z,31456.00
2019-06-07T08:27:39.909Z,29760.00
2019-06-07T08:28:39.898Z,29024.00
2019-06-07T08:29:44.724Z,27808.00
2019-06-07T08:30:54.359Z,27584.00
2019-06-07T08:31:40.874Z,28928.00
2019-06-07T08:32:39.854Z,26144.00
2019-06-07T08:33:39.856Z,24352.00
2019-06-07T08:34:39.833Z,22880.00
2019-06-07T08:36:42.652Z,23808.00
2019-06-07T08:38:14.635Z,26432.00
2019-06-07T08:38:48.073Z,29632.00
2019-06-07T08:39:40.776Z,30944.00
2019-06-07T08:40:39.767Z,29824.00
2019-06-07T08:41:54.101Z,30496.00
2019-06-07T08:42:59.793Z,29952.00
2019-06-07T08:43:40.736Z,29056.00
2019-06-07T08:44:39.722Z,31136.00
2019-06-07T08:45:39.711Z,33184.00
2019-06-07T08:46:39.707Z,34176.00
2019-06-07T08:47:39.896Z,33600.00
2019-06-07T08:48:39.675Z,31168.00
2019-06-07T08:49:39.673Z,30976.00
2019-06-07T08:50:39.659Z,31104.00
2019-06-07T08:51:39.642Z,30528.00
2019-06-07T08:52:39.678Z,32960.00
2019-06-07T08:53:39.914Z,33184.00
2019-06-07T08:54:39.609Z,31968.00
2019-06-07T08:55:39.682Z,32960.00
2019-06-07T08:56:39.585Z,32224.00
2019-06-07T08:57:39.577Z,29504.00
2019-06-07T08:58:39.565Z,27520.00
2019-06-07T08:59:39.613Z,27840.00
2019-06-07T09:00:46.681Z,28800.00
2019-06-07T09:01:40.529Z,28096.00
2019-06-07T09:02:39.521Z,26624.00
2019-06-07T09:03:39.508Z,26112.00
2019-06-07T09:04:39.496Z,27104.00
2019-06-07T09:05:39.540Z,29536.00
2019-06-07T09:07:06.727Z,33280.00
2019-06-07T09:07:40.464Z,33760.00
2019-06-07T09:08:39.453Z,34496.00
2019-06-07T09:09:39.441Z,33536.00
2019-06-07T09:10:39.474Z,34016.00
2019-06-07T09:11:39.486Z,33088.00
2019-06-07T09:12:39.409Z,33472.00
2019-06-07T09:13:39.397Z,33184.00
2019-06-07T09:14:58.839Z,32000.00
2019-06-07T09:15:40.379Z,32384.00
2019-06-07T09:16:39.366Z,33440.00
2019-06-07T09:18:29.757Z,32224.00
2019-06-07T09:18:43.578Z,30208.00
2019-06-07T09:19:39.330Z,30144.00
2019-06-07T09:20:39.325Z,31712.00
2019-06-07T09:21:39.312Z,34688.00
2019-06-07T09:22:39.301Z,36768.00
2019-06-07T09:23:39.496Z,35552.00
2019-06-07T09:24:39.282Z,40768.00
2019-06-07T09:25:56.060Z,39264.00
2019-06-07T09:26:40.253Z,43776.00
2019-06-07T09:27:39.307Z,40832.00
2019-06-07T09:28:39.235Z,38144.00
2019-06-07T09:29:39.285Z,35808.00
2019-06-07T09:30:39.214Z,33696.00
2019-06-07T09:31:52.031Z,31648.00
2019-06-07T09:32:40.187Z,30880.00
2019-06-07T09:33:39.180Z,30720.00
2019-06-07T09:34:39.185Z,31584.00
2019-06-07T09:35:39.219Z,34336.00
2019-06-07T09:36:39.143Z,43584.00
2019-06-07T09:38:04.346Z,60288.00
2019-06-07T09:38:40.120Z,40448.00
2019-06-07T09:39:39.110Z,42752.00
2019-06-07T09:40:39.099Z,43104.00
2019-06-07T09:41:47.674Z,45728.00
2019-06-07T09:42:40.074Z,50272.00
2019-06-07T09:44:05.344Z,67840.00
2019-06-07T09:44:40.052Z,49312.00
2019-06-07T09:45:39.051Z,54464.00
2019-06-07T09:46:39.030Z,56608.00
2019-06-07T09:47:39.106Z,43456.00
2019-06-07T09:49:39.997Z,45568.00
2019-06-07T09:50:38.993Z,42144.00
2019-06-07T09:51:38.977Z,67424.00
2019-06-07T09:52:57.011Z,73664.00
2019-06-07T09:53:40.013Z,59360.00
2019-06-07T09:55:39.970Z,81184.00
2019-06-07T09:56:38.924Z,40384.00
2019-06-07T09:57:38.967Z,33152.00
2019-06-07T09:58:54.618Z,31008.00
2019-06-07T09:59:40.093Z,32320.00
2019-06-07T10:00:42.118Z,34304.00
2019-06-07T10:01:38.872Z,35264.00
2019-06-07T10:02:38.859Z,35520.00
2019-06-07T10:03:38.848Z,36448.00
2019-06-07T10:04:38.834Z,38304.00
2019-06-07T10:05:38.913Z,37792.00
2019-06-07T10:06:38.817Z,35968.00
2019-06-07T10:07:38.810Z,35488.00
2019-06-07T10:09:56.954Z,35840.00
2019-06-07T10:10:10.068Z,36032.00
2019-06-07T10:10:42.770Z,38112.00
2019-06-07T10:11:38.771Z,36064.00
2019-06-07T10:12:38.748Z,35360.00
2019-06-07T10:13:38.744Z,35104.00
2019-06-07T10:14:38.727Z,39648.00
2019-06-07T10:15:38.715Z,38656.00
2019-06-07T10:16:47.164Z,33248.00
2019-06-07T10:17:39.698Z,32672.00
2019-06-07T10:18:38.698Z,38304.00
2019-06-07T10:19:38.687Z,41728.00
2019-06-07T10:20:38.663Z,59520.00
2019-06-07T10:21:38.650Z,50432.00
2019-06-07T10:22:38.703Z,60864.00
2019-06-07T10:23:38.629Z,72000.00
2019-06-07T10:24:38.618Z,42528.00
2019-06-07T10:25:38.606Z,70592.00
2019-06-07T10:26:38.598Z,67680.00
2019-06-07T10:27:38.584Z,44864.00
2019-06-07T10:28:38.657Z,48576.00
2019-06-07T10:29:38.563Z,46720.00
2019-06-07T10:30:38.561Z,47232.00
2019-06-07T10:31:38.592Z,70528.00
2019-06-07T10:32:38.532Z,45344.00
2019-06-07T10:33:38.519Z,52736.00
2019-06-07T10:34:38.565Z,60128.00
2019-06-07T10:35:38.500Z,110592.00
2019-06-07T10:36:38.495Z,37056.00
2019-06-07T10:37:38.474Z,40992.00
2019-06-07T10:38:38.467Z,38208.00
2019-06-07T10:39:48.022Z,32128.00
2019-06-07T10:40:39.646Z,37824.00
2019-06-07T10:41:38.431Z,59264.00
2019-06-07T10:42:38.424Z,44608.00
2019-06-07T10:43:38.410Z,40064.00
2019-06-07T10:44:38.399Z,29984.00
2019-06-07T10:45:38.391Z,28704.00
2019-06-07T10:46:38.439Z,35872.00
2019-06-07T10:47:38.370Z,130432.00
2019-06-07T10:48:38.356Z,122304.00
2019-06-07T10:49:38.383Z,118944.00
2019-06-07T10:50:38.334Z,111456.00
2019-06-07T10:51:38.333Z,116448.00
2019-06-07T10:52:38.391Z,49760.00
2019-06-07T10:53:38.300Z,42272.00
2019-06-07T10:54:38.292Z,37888.00
2019-06-07T10:55:38.279Z,55168.00
2019-06-07T10:56:38.269Z,116000.00
2019-06-07T10:57:38.258Z,78880.00
2019-06-07T10:58:38.452Z,113280.00
2019-06-07T10:59:38.237Z,29952.00
2019-06-07T11:00:38.225Z,35776.00
2019-06-07T11:01:38.216Z,61952.00
2019-06-07T11:02:38.210Z,67616.00
2019-06-07T11:03:38.223Z,118272.00
2019-06-07T11:04:38.391Z,118752.00
2019-06-07T11:05:38.178Z,113248.00
2019-06-07T11:06:38.160Z,107328.00
2019-06-07T11:07:38.154Z,107136.00
2019-06-07T11:08:38.140Z,103328.00
2019-06-07T11:09:38.131Z,106592.00
2019-06-07T11:10:38.179Z,103392.00
2019-06-07T11:11:38.121Z,107328.00
2019-06-07T11:12:38.099Z,108160.00
2019-06-07T11:13:38.086Z,106336.00
2019-06-07T11:14:38.078Z,109248.00
2019-06-07T11:15:38.067Z,107712.00
2019-06-07T11:16:38.263Z,107712.00
2019-06-07T11:17:38.047Z,106848.00
2019-06-07T11:18:38.035Z,108608.00
2019-06-07T11:19:38.023Z,107552.00
2019-06-07T11:20:38.012Z,110016.00
2019-06-07T11:21:38.003Z,108000.00
2019-06-07T11:22:38.054Z,111168.00
2019-06-07T11:23:37.981Z,111040.00
2019-06-07T11:24:37.971Z,110496.00
2019-06-07T11:25:37.960Z,43200.00
2019-06-07T11:26:37.952Z,105120.00
2019-06-07T11:27:37.947Z,105056.00
2019-06-07T11:28:37.994Z,103680.00
2019-06-07T11:29:37.967Z,101920.00
2019-06-07T11:30:37.907Z,104416.00
2019-06-07T11:31:37.916Z,102720.00
2019-06-07T11:32:37.886Z,107264.00
2019-06-07T11:33:38.077Z,110848.00
2019-06-07T11:34:38.090Z,105408.00
2019-06-07T11:35:37.855Z,104064.00
2019-06-07T11:36:37.928Z,101728.00
2019-06-07T11:37:37.834Z,92128.00
2019-06-07T11:38:37.825Z,97088.00
2019-06-07T11:39:37.817Z,101024.00
2019-06-07T11:40:37.873Z,102912.00
2019-06-07T11:41:37.795Z,107616.00
2019-06-07T11:42:37.786Z,109408.00
2019-06-07T11:43:37.784Z,108832.00
2019-06-07T11:44:37.766Z,105376.00
2019-06-07T11:45:37.761Z,95616.00
2019-06-07T11:46:37.821Z,97984.00
2019-06-07T11:47:37.740Z,95104.00
2019-06-07T11:48:37.732Z,97824.00
2019-06-07T11:49:37.724Z,100160.00
2019-06-07T11:50:37.771Z,110400.00
2019-06-07T11:51:37.700Z,111456.00
2019-06-07T11:52:39.411Z,110368.00
2019-06-07T11:53:37.702Z,106624.00
2019-06-07T11:54:37.685Z,107040.00
2019-06-07T11:55:37.660Z,98144.00
2019-06-07T11:56:37.650Z,100864.00
2019-06-07T11:57:37.642Z,103488.00
2019-06-07T11:58:37.691Z,112000.00
2019-06-07T11:59:37.621Z,110752.00
2019-06-07T12:00:37.611Z,106880.00
2019-06-07T12:01:37.606Z,103680.00
2019-06-07T12:02:37.598Z,97888.00
2019-06-07T12:03:37.582Z,97792.00
2019-06-07T12:04:37.777Z,95680.00
2019-06-07T12:05:37.562Z,99520.00
2019-06-07T12:06:37.551Z,103840.00
2019-06-07T12:07:37.547Z,98240.00
2019-06-07T12:08:37.535Z,102016.00
2019-06-07T12:09:37.581Z,97216.00
2019-06-07T12:10:42.646Z,97504.00
2019-06-07T12:11:38.502Z,103616.00
2019-06-07T12:12:37.495Z,107488.00
2019-06-07T12:13:37.487Z,110688.00
2019-06-07T12:14:37.499Z,112672.00